SAR5 EGHJ-EGHJ

Flight info

Callsign SAR5
Flight time N/A
Altitude 10000
Route VFR
Aircraft EC35/L-SDFGRY/C

Departure

Time 2026-04-12 17:57
Airport Bembridge Airport (EGHJ)

Arrival

Time N/A
Airport Bembridge Airport (EGHJ)
Time Latitude Longitude Altitude Speed Heading
2026-04-12 17:52 50.67840 -1.10484 19 ft 0 kts 344°
2026-04-12 17:57 50.67886 -1.10381 117 ft 21 kts 73°
2026-04-12 17:57 50.67912 -1.10140 370 ft 27 kts 100°
2026-04-12 17:57 50.67930 -1.09709 738 ft 56 kts 121°
2026-04-12 17:58 50.67985 -1.08799 861 ft 107 kts 81°
2026-04-12 17:58 50.68135 -1.07518 928 ft 143 kts 81°
2026-04-12 17:58 50.68335 -1.05885 1293 ft 151 kts 81°
2026-04-12 17:58 50.68506 -1.04829 1567 ft 151 kts 74°
2026-04-12 17:59 50.68880 -1.03203 1624 ft 167 kts 69°
2026-04-12 17:59 50.69311 -1.01494 1666 ft 167 kts 69°
2026-04-12 17:59 50.69902 -0.99246 1686 ft 167 kts 68°
2026-04-12 17:59 50.70195 -0.98099 1668 ft 167 kts 68°
2026-04-12 18:00 50.70628 -0.96391 1686 ft 167 kts 68°
2026-04-12 18:00 50.71069 -0.94688 1693 ft 167 kts 69°
2026-04-12 18:00 50.71343 -0.92910 1642 ft 168 kts 83°
2026-04-12 18:00 50.71486 -0.91128 2033 ft 159 kts 85°
2026-04-12 18:01 50.71603 -0.89408 2510 ft 155 kts 86°
2026-04-12 18:01 50.71721 -0.87740 2930 ft 152 kts 86°
2026-04-12 18:01 50.71843 -0.85993 2839 ft 166 kts 86°
2026-04-12 18:01 50.71973 -0.84182 2691 ft 164 kts 85°
2026-04-12 18:02 50.72108 -0.82370 2442 ft 165 kts 85°
2026-04-12 18:02 50.72244 -0.80611 2464 ft 154 kts 85°
2026-04-12 18:02 50.72407 -0.79015 2590 ft 148 kts 78°
2026-04-12 18:02 50.72838 -0.77522 2412 ft 140 kts 56°
2026-04-12 18:03 50.73352 -0.76538 2380 ft 111 kts 43°
2026-04-12 18:03 50.73921 -0.75701 2533 ft 114 kts 36°
2026-04-12 18:03 50.74556 -0.74873 2574 ft 122 kts 34°
2026-04-12 18:03 50.75238 -0.74004 2578 ft 129 kts 34°
2026-04-12 18:04 50.75958 -0.73101 2553 ft 134 kts 34°
2026-04-12 18:04 50.76646 -0.72121 2538 ft 132 kts 45°
2026-04-12 18:04 50.77187 -0.70933 2472 ft 135 kts 57°
2026-04-12 18:04 50.77572 -0.69590 2447 ft 135 kts 71°
2026-04-12 18:05 50.77852 -0.68163 2445 ft 137 kts 74°
2026-04-12 18:05 50.78117 -0.66712 2443 ft 138 kts 75°
2026-04-12 18:05 50.78367 -0.65256 2436 ft 137 kts 77°
2026-04-12 18:05 50.78606 -0.63812 2473 ft 140 kts 77°
2026-04-12 18:06 50.78857 -0.62214 2554 ft 159 kts 78°
2026-04-12 18:06 50.79065 -0.60446 2596 ft 167 kts 81°
2026-04-12 18:06 50.79255 -0.58632 2601 ft 167 kts 81°
2026-04-12 18:06 50.79463 -0.56824 2601 ft 167 kts 81°
2026-04-12 18:07 50.79685 -0.55019 2603 ft 167 kts 80°
2026-04-12 18:07 50.79891 -0.53291 2583 ft 167 kts 83°
2026-04-12 18:07 50.79942 -0.51454 2597 ft 167 kts 93°
2026-04-12 18:07 50.79896 -0.49618 2600 ft 167 kts 95°
2026-04-12 18:08 50.79849 -0.47773 2584 ft 167 kts 91°
2026-04-12 18:08 50.79969 -0.45947 2632 ft 167 kts 84°
2026-04-12 18:08 50.80124 -0.44145 1907 ft 165 kts 83°
2026-04-12 18:08 50.80296 -0.42334 1911 ft 166 kts 83°
2026-04-12 18:09 50.80427 -0.40511 1996 ft 167 kts 86°
2026-04-12 18:09 50.80524 -0.38675 1983 ft 167 kts 88°
2026-04-12 18:09 50.80640 -0.36842 1974 ft 168 kts 85°
2026-04-12 18:09 50.80866 -0.35063 1980 ft 167 kts 77°
2026-04-12 18:10 50.81170 -0.33265 1992 ft 167 kts 77°
2026-04-12 18:10 50.81477 -0.31488 1994 ft 167 kts 76°
2026-04-12 18:10 50.81815 -0.29779 1651 ft 164 kts 73°
2026-04-12 18:10 50.82203 -0.28234 517 ft 165 kts 70°
2026-04-12 18:11 50.82624 -0.26543 736 ft 160 kts 72°
2026-04-12 18:11 50.82654 -0.24842 1236 ft 153 kts 100°
2026-04-12 18:11 50.82534 -0.23070 1038 ft 167 kts 101°
2026-04-12 18:11 50.82276 -0.21293 1239 ft 166 kts 115°
2026-04-12 18:12 50.81882 -0.19634 1339 ft 168 kts 116°
2026-04-12 18:12 50.81444 -0.17913 1356 ft 168 kts 117°
2026-04-12 18:12 50.81025 -0.16236 1483 ft 163 kts 116°
2026-04-12 18:12 50.80597 -0.14526 1330 ft 167 kts 116°
2026-04-12 18:13 50.80232 -0.12814 1228 ft 167 kts 111°
2026-04-12 18:13 50.80117 -0.11000 997 ft 168 kts 98°
2026-04-12 18:13 50.79707 -0.09352 1073 ft 154 kts 120°
2026-04-12 18:13 50.79226 -0.07774 832 ft 159 kts 118°
2026-04-12 18:14 50.78762 -0.06147 817 ft 156 kts 119°
2026-04-12 18:14 50.78544 -0.05190 2259 ft 18 kts 166°
2026-04-12 18:14 50.78601 -0.05539 2566 ft 58 kts 283°
2026-04-12 18:14 50.78813 -0.06198 2729 ft 85 kts 285°
2026-04-12 18:15 50.79110 -0.07413 2579 ft 143 kts 283°
2026-04-12 18:15 50.79357 -0.08818 3095 ft 117 kts 276°
2026-04-12 18:15 50.80126 -0.09297 2255 ft 165 kts 10°
2026-04-12 18:15 50.80867 -0.08029 1219 ft 160 kts 65°
2026-04-12 18:16 50.81358 -0.06411 597 ft 165 kts 64°
2026-04-12 18:16 50.81877 -0.05075 830 ft 109 kts 44°
2026-04-12 18:16 50.82196 -0.04554 678 ft 31 kts 29°
2026-04-12 18:16 50.82272 -0.04350 510 ft 17 kts 289°
2026-04-12 18:17 50.82369 -0.04630 468 ft 58 kts 58°
2026-04-12 18:17 50.82418 -0.04551 376 ft 35 kts 286°
2026-04-12 18:17 50.82449 -0.04761 349 ft 0 kts 347°